Lindsay, Nebraska
Current Conditions -  °F | °C
As of 8:15 AM on Monday 20 Oct 2014 (Local Time) from KBVN Reporting Station
Clear Clear  
Wind Chill: 38°   Ceiling: Unl
Heat Index: 38°   Visibility: 10mi
Dew Point: 34°   Wind: 3mph
Humidity: 85%   Direction: 320°NW
Pressure: 30.1"   Gusts: NA
Location:  41.7°N, 97.69°W
Report Text: KBVN 201315Z AUTO 32003KT 10SM CLR 03/01 A3010 RMK AO2 T00330010
Loading
Personal Weather Stations






























Interactive Weather Map
Tropical Storm Tracking
New forecast layout! Learn more

10-Day Weather Forecast

Advertisements
Track Severe Weather on mobile